sensor_id;sensor_type;location;lat;lon;timestamp;P1;durP1;ratioP1;P2;durP2;ratioP2
49824;SDS011;35714;55.708;37.478;2023-02-28T00:01:05;10.77;;;3.70;;
49824;SDS011;35714;55.708;37.478;2023-02-28T00:03:30;7.70;;;3.50;;
49824;SDS011;35714;55.708;37.478;2023-02-28T00:06:00;10.15;;;4.63;;
49824;SDS011;35714;55.708;37.478;2023-02-28T00:08:27;9.27;;;3.97;;
49824;SDS011;35714;55.708;37.478;2023-02-28T00:10:53;10.48;;;5.03;;
49824;SDS011;35714;55.708;37.478;2023-02-28T00:13:19;13.00;;;6.22;;
49824;SDS011;35714;55.708;37.478;2023-02-28T00:15:44;11.25;;;5.63;;
49824;SDS011;35714;55.708;37.478;2023-02-28T00:18:11;12.10;;;5.50;;
49824;SDS011;35714;55.708;37.478;2023-02-28T00:20:37;12.55;;;4.70;;
49824;SDS011;35714;55.708;37.478;2023-02-28T00:23:02;16.55;;;5.97;;
49824;SDS011;35714;55.708;37.478;2023-02-28T00:25:28;9.90;;;4.93;;
49824;SDS011;35714;55.708;37.478;2023-02-28T00:27:54;10.75;;;5.20;;
49824;SDS011;35714;55.708;37.478;2023-02-28T00:30:20;15.18;;;5.07;;
49824;SDS011;35714;55.708;37.478;2023-02-28T00:32:48;12.93;;;5.32;;
49824;SDS011;35714;55.708;37.478;2023-02-28T00:35:14;6.05;;;3.25;;
49824;SDS011;35714;55.708;37.478;2023-02-28T00:37:40;13.07;;;4.38;;
49824;SDS011;35714;55.708;37.478;2023-02-28T00:40:07;10.30;;;4.00;;
49824;SDS011;35714;55.708;37.478;2023-02-28T00:42:34;8.65;;;4.85;;
49824;SDS011;35714;55.708;37.478;2023-02-28T00:45:00;8.50;;;3.55;;
49824;SDS011;35714;55.708;37.478;2023-02-28T00:47:26;8.70;;;4.70;;
49824;SDS011;35714;55.708;37.478;2023-02-28T00:49:52;10.77;;;4.70;;
49824;SDS011;35714;55.708;37.478;2023-02-28T00:52:17;7.40;;;3.55;;
49824;SDS011;35714;55.708;37.478;2023-02-28T00:54:43;8.93;;;4.22;;
49824;SDS011;35714;55.708;37.478;2023-02-28T00:57:09;8.18;;;3.97;;
49824;SDS011;35714;55.708;37.478;2023-02-28T00:59:34;8.20;;;4.28;;
49824;SDS011;35714;55.708;37.478;2023-02-28T01:02:00;8.27;;;4.30;;
49824;SDS011;35714;55.708;37.478;2023-02-28T01:04:26;6.30;;;3.15;;
49824;SDS011;35714;55.708;37.478;2023-02-28T01:06:51;7.95;;;3.90;;
49824;SDS011;35714;55.708;37.478;2023-02-28T01:09:17;8.70;;;4.55;;
49824;SDS011;35714;55.708;37.478;2023-02-28T01:11:43;7.97;;;4.53;;
49824;SDS011;35714;55.708;37.478;2023-02-28T01:14:12;9.75;;;5.05;;
49824;SDS011;35714;55.708;37.478;2023-02-28T01:16:39;7.55;;;4.10;;
49824;SDS011;35714;55.708;37.478;2023-02-28T01:19:05;7.32;;;3.13;;
49824;SDS011;35714;55.708;37.478;2023-02-28T01:21:30;5.78;;;2.53;;
49824;SDS011;35714;55.708;37.478;2023-02-28T01:23:56;7.72;;;3.63;;
49824;SDS011;35714;55.708;37.478;2023-02-28T01:26:22;7.28;;;3.05;;
49824;SDS011;35714;55.708;37.478;2023-02-28T01:28:49;4.72;;;2.22;;
49824;SDS011;35714;55.708;37.478;2023-02-28T01:31:17;6.40;;;2.60;;
49824;SDS011;35714;55.708;37.478;2023-02-28T01:33:44;5.60;;;2.63;;
49824;SDS011;35714;55.708;37.478;2023-02-28T01:36:12;5.93;;;2.47;;
49824;SDS011;35714;55.708;37.478;2023-02-28T01:38:45;7.10;;;3.05;;
49824;SDS011;35714;55.708;37.478;2023-02-28T01:41:20;6.85;;;2.58;;
49824;SDS011;35714;55.708;37.478;2023-02-28T01:43:56;6.97;;;3.20;;
49824;SDS011;35714;55.708;37.478;2023-02-28T01:46:29;6.68;;;2.78;;
49824;SDS011;35714;55.708;37.478;2023-02-28T01:51:41;6.13;;;3.25;;
49824;SDS011;35714;55.708;37.478;2023-02-28T01:54:12;5.93;;;2.92;;
49824;SDS011;35714;55.708;37.478;2023-02-28T01:56:46;5.78;;;2.38;;
49824;SDS011;35714;55.708;37.478;2023-02-28T01:59:21;8.18;;;3.63;;
49824;SDS011;35714;55.708;37.478;2023-02-28T02:02:12;9.30;;;4.25;;
49824;SDS011;35714;55.708;37.478;2023-02-28T02:04:41;8.70;;;4.45;;
49824;SDS011;35714;55.708;37.478;2023-02-28T02:07:12;9.93;;;4.85;;
49824;SDS011;35714;55.708;37.478;2023-02-28T02:09:41;10.25;;;4.85;;
49824;SDS011;35714;55.708;37.478;2023-02-28T02:12:16;10.15;;;4.70;;
49824;SDS011;35714;55.708;37.478;2023-02-28T02:14:53;8.20;;;3.53;;
49824;SDS011;35714;55.708;37.478;2023-02-28T02:17:48;8.65;;;5.00;;
49824;SDS011;35714;55.708;37.478;2023-02-28T02:25:39;8.55;;;3.88;;
49824;SDS011;35714;55.708;37.478;2023-02-28T02:28:34;9.45;;;3.72;;
49824;SDS011;35714;55.708;37.478;2023-02-28T02:36:54;6.85;;;3.50;;
49824;SDS011;35714;55.708;37.478;2023-02-28T02:39:56;7.55;;;3.47;;
49824;SDS011;35714;55.708;37.478;2023-02-28T02:42:37;8.00;;;3.70;;
49824;SDS011;35714;55.708;37.478;2023-02-28T02:45:28;6.85;;;3.53;;
49824;SDS011;35714;55.708;37.478;2023-02-28T02:48:12;8.63;;;3.33;;
49824;SDS011;35714;55.708;37.478;2023-02-28T02:50:43;8.93;;;4.20;;
49824;SDS011;35714;55.708;37.478;2023-02-28T02:53:17;8.80;;;3.22;;
49824;SDS011;35714;55.708;37.478;2023-02-28T02:55:47;10.20;;;3.70;;
49824;SDS011;35714;55.708;37.478;2023-02-28T02:58:21;9.27;;;4.07;;
49824;SDS011;35714;55.708;37.478;2023-02-28T03:00:52;8.40;;;4.13;;
49824;SDS011;35714;55.708;37.478;2023-02-28T03:03:21;8.77;;;3.50;;
49824;SDS011;35714;55.708;37.478;2023-02-28T03:05:54;7.30;;;3.53;;
49824;SDS011;35714;55.708;37.478;2023-02-28T03:08:24;8.82;;;3.42;;
49824;SDS011;35714;55.708;37.478;2023-02-28T03:10:51;8.15;;;4.20;;
49824;SDS011;35714;55.708;37.478;2023-02-28T03:13:36;8.23;;;3.28;;
49824;SDS011;35714;55.708;37.478;2023-02-28T03:16:29;7.55;;;3.60;;
49824;SDS011;35714;55.708;37.478;2023-02-28T03:30:20;9.20;;;2.85;;
49824;SDS011;35714;55.708;37.478;2023-02-28T03:32:57;6.10;;;2.90;;
49824;SDS011;35714;55.708;37.478;2023-02-28T03:35:37;7.63;;;2.80;;
49824;SDS011;35714;55.708;37.478;2023-02-28T03:38:31;6.75;;;3.10;;
49824;SDS011;35714;55.708;37.478;2023-02-28T03:41:05;7.95;;;2.70;;
49824;SDS011;35714;55.708;37.478;2023-02-28T03:43:37;7.00;;;3.20;;
49824;SDS011;35714;55.708;37.478;2023-02-28T03:46:07;5.70;;;2.03;;
49824;SDS011;35714;55.708;37.478;2023-02-28T03:51:10;5.85;;;2.22;;
49824;SDS011;35714;55.708;37.478;2023-02-28T03:53:45;6.53;;;2.60;;
49824;SDS011;35714;55.708;37.478;2023-02-28T03:56:25;5.07;;;2.33;;
49824;SDS011;35714;55.708;37.478;2023-02-28T03:59:16;5.00;;;1.95;;
49824;SDS011;35714;55.708;37.478;2023-02-28T04:01:48;7.35;;;2.88;;
49824;SDS011;35714;55.708;37.478;2023-02-28T04:04:15;8.15;;;2.95;;
49824;SDS011;35714;55.708;37.478;2023-02-28T04:06:42;7.43;;;2.75;;
49824;SDS011;35714;55.708;37.478;2023-02-28T04:09:10;6.47;;;2.50;;
49824;SDS011;35714;55.708;37.478;2023-02-28T04:11:55;8.00;;;3.17;;
49824;SDS011;35714;55.708;37.478;2023-02-28T04:14:21;5.13;;;1.73;;
49824;SDS011;35714;55.708;37.478;2023-02-28T04:16:47;5.95;;;2.88;;
49824;SDS011;35714;55.708;37.478;2023-02-28T04:19:13;8.10;;;3.08;;
49824;SDS011;35714;55.708;37.478;2023-02-28T04:21:43;7.63;;;2.80;;
49824;SDS011;35714;55.708;37.478;2023-02-28T04:24:11;5.00;;;2.08;;
49824;SDS011;35714;55.708;37.478;2023-02-28T04:26:42;6.30;;;2.45;;
49824;SDS011;35714;55.708;37.478;2023-02-28T04:29:10;6.95;;;2.58;;
49824;SDS011;35714;55.708;37.478;2023-02-28T04:31:38;8.35;;;2.08;;
49824;SDS011;35714;55.708;37.478;2023-02-28T04:34:04;8.55;;;3.60;;
49824;SDS011;35714;55.708;37.478;2023-02-28T04:36:30;7.22;;;2.58;;
49824;SDS011;35714;55.708;37.478;2023-02-28T04:38:56;4.88;;;2.30;;
49824;SDS011;35714;55.708;37.478;2023-02-28T04:41:22;5.47;;;2.42;;
49824;SDS011;35714;55.708;37.478;2023-02-28T04:43:48;6.20;;;2.70;;
49824;SDS011;35714;55.708;37.478;2023-02-28T04:46:15;6.80;;;3.10;;
49824;SDS011;35714;55.708;37.478;2023-02-28T04:48:42;4.65;;;1.92;;
49824;SDS011;35714;55.708;37.478;2023-02-28T04:51:10;6.53;;;2.47;;
49824;SDS011;35714;55.708;37.478;2023-02-28T04:53:38;3.42;;;1.55;;
49824;SDS011;35714;55.708;37.478;2023-02-28T04:56:05;7.70;;;2.95;;
49824;SDS011;35714;55.708;37.478;2023-02-28T04:58:32;6.10;;;2.13;;
49824;SDS011;35714;55.708;37.478;2023-02-28T05:01:02;6.97;;;3.20;;
49824;SDS011;35714;55.708;37.478;2023-02-28T05:03:29;8.73;;;3.05;;
49824;SDS011;35714;55.708;37.478;2023-02-28T05:05:55;4.80;;;1.85;;
49824;SDS011;35714;55.708;37.478;2023-02-28T05:08:20;6.43;;;2.47;;
49824;SDS011;35714;55.708;37.478;2023-02-28T05:10:46;9.00;;;2.22;;
49824;SDS011;35714;55.708;37.478;2023-02-28T05:13:12;5.25;;;2.63;;
49824;SDS011;35714;55.708;37.478;2023-02-28T05:15:38;5.05;;;1.95;;
49824;SDS011;35714;55.708;37.478;2023-02-28T05:18:03;8.52;;;2.30;;
49824;SDS011;35714;55.708;37.478;2023-02-28T05:20:29;4.13;;;1.85;;
49824;SDS011;35714;55.708;37.478;2023-02-28T05:22:55;5.75;;;2.35;;
49824;SDS011;35714;55.708;37.478;2023-02-28T05:25:23;7.00;;;2.47;;
49824;SDS011;35714;55.708;37.478;2023-02-28T05:27:49;5.45;;;2.47;;
49824;SDS011;35714;55.708;37.478;2023-02-28T05:30:14;5.50;;;1.95;;
49824;SDS011;35714;55.708;37.478;2023-02-28T05:32:40;6.50;;;2.70;;
49824;SDS011;35714;55.708;37.478;2023-02-28T05:35:08;6.35;;;2.45;;
49824;SDS011;35714;55.708;37.478;2023-02-28T05:37:35;10.32;;;2.15;;
49824;SDS011;35714;55.708;37.478;2023-02-28T05:40:01;5.35;;;2.38;;
49824;SDS011;35714;55.708;37.478;2023-02-28T05:42:27;5.65;;;2.40;;
49824;SDS011;35714;55.708;37.478;2023-02-28T05:44:53;7.78;;;2.90;;
49824;SDS011;35714;55.708;37.478;2023-02-28T05:47:19;5.28;;;2.05;;
49824;SDS011;35714;55.708;37.478;2023-02-28T05:49:44;5.90;;;2.70;;
49824;SDS011;35714;55.708;37.478;2023-02-28T05:52:10;7.88;;;2.83;;
49824;SDS011;35714;55.708;37.478;2023-02-28T05:54:35;4.95;;;2.13;;
49824;SDS011;35714;55.708;37.478;2023-02-28T05:57:01;5.75;;;2.53;;
49824;SDS011;35714;55.708;37.478;2023-02-28T05:59:27;6.43;;;2.08;;
49824;SDS011;35714;55.708;37.478;2023-02-28T06:01:52;6.93;;;2.88;;
49824;SDS011;35714;55.708;37.478;2023-02-28T06:04:19;5.65;;;1.98;;
49824;SDS011;35714;55.708;37.478;2023-02-28T06:06:49;6.45;;;3.15;;
49824;SDS011;35714;55.708;37.478;2023-02-28T06:09:15;5.57;;;2.10;;
49824;SDS011;35714;55.708;37.478;2023-02-28T06:11:42;9.30;;;2.90;;
49824;SDS011;35714;55.708;37.478;2023-02-28T06:14:12;6.82;;;2.75;;
49824;SDS011;35714;55.708;37.478;2023-02-28T06:16:41;6.68;;;2.75;;
49824;SDS011;35714;55.708;37.478;2023-02-28T06:19:08;7.03;;;2.67;;
49824;SDS011;35714;55.708;37.478;2023-02-28T06:21:34;9.02;;;2.80;;
49824;SDS011;35714;55.708;37.478;2023-02-28T06:24:00;6.15;;;2.03;;
49824;SDS011;35714;55.708;37.478;2023-02-28T06:26:26;8.70;;;2.95;;
49824;SDS011;35714;55.708;37.478;2023-02-28T06:28:52;8.18;;;2.88;;
49824;SDS011;35714;55.708;37.478;2023-02-28T06:31:18;7.60;;;2.45;;
49824;SDS011;35714;55.708;37.478;2023-02-28T06:33:44;8.85;;;1.98;;
49824;SDS011;35714;55.708;37.478;2023-02-28T06:36:11;9.18;;;3.28;;
49824;SDS011;35714;55.708;37.478;2023-02-28T06:38:37;6.10;;;2.17;;
49824;SDS011;35714;55.708;37.478;2023-02-28T06:41:04;6.57;;;2.13;;
49824;SDS011;35714;55.708;37.478;2023-02-28T06:43:31;6.65;;;2.47;;
49824;SDS011;35714;55.708;37.478;2023-02-28T06:46:00;5.20;;;2.10;;
49824;SDS011;35714;55.708;37.478;2023-02-28T06:48:27;7.47;;;2.85;;
49824;SDS011;35714;55.708;37.478;2023-02-28T06:51:00;5.50;;;1.98;;
49824;SDS011;35714;55.708;37.478;2023-02-28T06:53:30;7.45;;;2.40;;
49824;SDS011;35714;55.708;37.478;2023-02-28T06:55:56;4.25;;;1.85;;
49824;SDS011;35714;55.708;37.478;2023-02-28T06:58:22;5.07;;;1.67;;
49824;SDS011;35714;55.708;37.478;2023-02-28T07:00:50;6.63;;;2.22;;
49824;SDS011;35714;55.708;37.478;2023-02-28T07:03:16;5.20;;;2.38;;
49824;SDS011;35714;55.708;37.478;2023-02-28T07:05:43;5.20;;;2.55;;
49824;SDS011;35714;55.708;37.478;2023-02-28T07:08:09;4.00;;;2.22;;
49824;SDS011;35714;55.708;37.478;2023-02-28T07:10:38;4.32;;;2.03;;
49824;SDS011;35714;55.708;37.478;2023-02-28T07:13:04;5.35;;;2.40;;
49824;SDS011;35714;55.708;37.478;2023-02-28T07:15:31;9.70;;;3.60;;
49824;SDS011;35714;55.708;37.478;2023-02-28T07:17:56;6.57;;;2.33;;
49824;SDS011;35714;55.708;37.478;2023-02-28T07:20:22;4.82;;;2.05;;
49824;SDS011;35714;55.708;37.478;2023-02-28T07:22:49;6.47;;;2.28;;
49824;SDS011;35714;55.708;37.478;2023-02-28T07:25:24;5.78;;;2.47;;
49824;SDS011;35714;55.708;37.478;2023-02-28T07:27:52;6.32;;;2.75;;
49824;SDS011;35714;55.708;37.478;2023-02-28T07:30:18;6.05;;;2.85;;
49824;SDS011;35714;55.708;37.478;2023-02-28T07:32:45;6.38;;;2.25;;
49824;SDS011;35714;55.708;37.478;2023-02-28T07:35:10;5.47;;;2.60;;
49824;SDS011;35714;55.708;37.478;2023-02-28T07:37:36;5.28;;;2.30;;
49824;SDS011;35714;55.708;37.478;2023-02-28T07:40:03;5.20;;;2.30;;
49824;SDS011;35714;55.708;37.478;2023-02-28T07:42:34;8.13;;;2.45;;
49824;SDS011;35714;55.708;37.478;2023-02-28T07:45:03;5.53;;;2.33;;
49824;SDS011;35714;55.708;37.478;2023-02-28T07:47:30;5.80;;;2.17;;
49824;SDS011;35714;55.708;37.478;2023-02-28T07:49:56;4.50;;;2.20;;
49824;SDS011;35714;55.708;37.478;2023-02-28T07:52:22;7.93;;;3.13;;
49824;SDS011;35714;55.708;37.478;2023-02-28T07:54:49;5.03;;;2.13;;
49824;SDS011;35714;55.708;37.478;2023-02-28T07:57:15;8.52;;;3.65;;
49824;SDS011;35714;55.708;37.478;2023-02-28T07:59:41;6.63;;;1.98;;
49824;SDS011;35714;55.708;37.478;2023-02-28T08:02:09;7.63;;;2.72;;
49824;SDS011;35714;55.708;37.478;2023-02-28T08:04:38;5.35;;;2.38;;
49824;SDS011;35714;55.708;37.478;2023-02-28T08:07:04;5.28;;;1.95;;
49824;SDS011;35714;55.708;37.478;2023-02-28T08:09:29;5.13;;;2.28;;
49824;SDS011;35714;55.708;37.478;2023-02-28T08:11:55;4.10;;;1.77;;
49824;SDS011;35714;55.708;37.478;2023-02-28T08:14:21;4.25;;;1.85;;
49824;SDS011;35714;55.708;37.478;2023-02-28T08:16:46;7.22;;;2.30;;
49824;SDS011;35714;55.708;37.478;2023-02-28T08:19:12;6.93;;;2.90;;
49824;SDS011;35714;55.708;37.478;2023-02-28T08:21:37;6.43;;;2.47;;
49824;SDS011;35714;55.708;37.478;2023-02-28T08:24:03;7.40;;;2.65;;
49824;SDS011;35714;55.708;37.478;2023-02-28T08:26:29;7.00;;;2.65;;
49824;SDS011;35714;55.708;37.478;2023-02-28T08:28:54;6.30;;;3.10;;
49824;SDS011;35714;55.708;37.478;2023-02-28T08:31:20;6.82;;;2.38;;
49824;SDS011;35714;55.708;37.478;2023-02-28T08:33:47;6.45;;;2.78;;
49824;SDS011;35714;55.708;37.478;2023-02-28T08:36:15;6.28;;;2.15;;
49824;SDS011;35714;55.708;37.478;2023-02-28T08:38:40;8.75;;;3.65;;
49824;SDS011;35714;55.708;37.478;2023-02-28T08:41:07;6.93;;;2.72;;
49824;SDS011;35714;55.708;37.478;2023-02-28T08:43:34;6.43;;;2.95;;
49824;SDS011;35714;55.708;37.478;2023-02-28T08:46:01;3.97;;;1.58;;
49824;SDS011;35714;55.708;37.478;2023-02-28T08:48:27;6.75;;;2.53;;
49824;SDS011;35714;55.708;37.478;2023-02-28T08:50:58;8.55;;;2.80;;
49824;SDS011;35714;55.708;37.478;2023-02-28T08:53:24;7.20;;;2.17;;
49824;SDS011;35714;55.708;37.478;2023-02-28T08:56:00;5.13;;;2.38;;
49824;SDS011;35714;55.708;37.478;2023-02-28T08:58:30;3.17;;;1.52;;
49824;SDS011;35714;55.708;37.478;2023-02-28T09:00:56;8.38;;;1.60;;
49824;SDS011;35714;55.708;37.478;2023-02-28T09:03:22;4.18;;;1.35;;
49824;SDS011;35714;55.708;37.478;2023-02-28T09:08:21;4.43;;;2.08;;
49824;SDS011;35714;55.708;37.478;2023-02-28T09:10:47;4.20;;;1.70;;
49824;SDS011;35714;55.708;37.478;2023-02-28T09:13:13;8.95;;;2.00;;
49824;SDS011;35714;55.708;37.478;2023-02-28T09:15:39;5.38;;;2.28;;
49824;SDS011;35714;55.708;37.478;2023-02-28T09:18:04;3.10;;;1.40;;
49824;SDS011;35714;55.708;37.478;2023-02-28T09:20:30;4.80;;;1.88;;
49824;SDS011;35714;55.708;37.478;2023-02-28T09:22:55;3.85;;;1.45;;
49824;SDS011;35714;55.708;37.478;2023-02-28T09:25:21;6.30;;;1.90;;
49824;SDS011;35714;55.708;37.478;2023-02-28T09:27:47;4.90;;;1.60;;
49824;SDS011;35714;55.708;37.478;2023-02-28T09:30:12;7.07;;;2.05;;
49824;SDS011;35714;55.708;37.478;2023-02-28T09:32:38;4.97;;;1.98;;
49824;SDS011;35714;55.708;37.478;2023-02-28T09:35:04;2.33;;;1.00;;
49824;SDS011;35714;55.708;37.478;2023-02-28T09:37:30;4.18;;;1.80;;
49824;SDS011;35714;55.708;37.478;2023-02-28T09:39:56;4.10;;;1.33;;
49824;SDS011;35714;55.708;37.478;2023-02-28T09:42:28;4.95;;;2.08;;
49824;SDS011;35714;55.708;37.478;2023-02-28T09:44:59;4.63;;;2.13;;
49824;SDS011;35714;55.708;37.478;2023-02-28T09:47:32;4.80;;;2.03;;
49824;SDS011;35714;55.708;37.478;2023-02-28T09:50:23;5.43;;;1.98;;
49824;SDS011;35714;55.708;37.478;2023-02-28T09:52:58;4.50;;;1.70;;
49824;SDS011;35714;55.708;37.478;2023-02-28T09:58:02;3.75;;;1.70;;
49824;SDS011;35714;55.708;37.478;2023-02-28T10:00:30;5.32;;;2.00;;
49824;SDS011;35714;55.708;37.478;2023-02-28T10:06:12;4.32;;;1.90;;
49824;SDS011;35714;55.708;37.478;2023-02-28T10:09:02;5.10;;;1.92;;
49824;SDS011;35714;55.708;37.478;2023-02-28T10:11:32;5.25;;;2.20;;
49824;SDS011;35714;55.708;37.478;2023-02-28T10:14:02;4.57;;;1.52;;
49824;SDS011;35714;55.708;37.478;2023-02-28T10:16:38;3.40;;;1.48;;
49824;SDS011;35714;55.708;37.478;2023-02-28T10:22:14;3.15;;;1.58;;
49824;SDS011;35714;55.708;37.478;2023-02-28T10:24:44;3.63;;;1.77;;
49824;SDS011;35714;55.708;37.478;2023-02-28T10:27:21;3.35;;;1.58;;
49824;SDS011;35714;55.708;37.478;2023-02-28T10:29:48;8.20;;;2.10;;
49824;SDS011;35714;55.708;37.478;2023-02-28T10:32:16;5.88;;;1.60;;
49824;SDS011;35714;55.708;37.478;2023-02-28T10:34:44;5.60;;;2.03;;
49824;SDS011;35714;55.708;37.478;2023-02-28T10:37:15;6.38;;;2.25;;
49824;SDS011;35714;55.708;37.478;2023-02-28T10:39:43;5.05;;;1.80;;
49824;SDS011;35714;55.708;37.478;2023-02-28T10:42:22;3.42;;;1.33;;
49824;SDS011;35714;55.708;37.478;2023-02-28T10:47:48;6.22;;;1.92;;
49824;SDS011;35714;55.708;37.478;2023-02-28T10:55:58;9.00;;;2.45;;
49824;SDS011;35714;55.708;37.478;2023-02-28T11:01:23;4.65;;;1.70;;
49824;SDS011;35714;55.708;37.478;2023-02-28T11:03:59;6.78;;;1.58;;
49824;SDS011;35714;55.708;37.478;2023-02-28T11:06:26;5.45;;;2.17;;
49824;SDS011;35714;55.708;37.478;2023-02-28T11:08:56;4.57;;;1.88;;
49824;SDS011;35714;55.708;37.478;2023-02-28T11:11:25;4.38;;;1.67;;
49824;SDS011;35714;55.708;37.478;2023-02-28T11:13:55;5.50;;;1.48;;
49824;SDS011;35714;55.708;37.478;2023-02-28T11:16:31;4.53;;;1.65;;
49824;SDS011;35714;55.708;37.478;2023-02-28T11:19:00;7.43;;;1.45;;
49824;SDS011;35714;55.708;37.478;2023-02-28T11:21:27;6.03;;;1.55;;
49824;SDS011;35714;55.708;37.478;2023-02-28T11:24:00;6.53;;;1.83;;
49824;SDS011;35714;55.708;37.478;2023-02-28T11:26:42;6.03;;;2.55;;
49824;SDS011;35714;55.708;37.478;2023-02-28T11:29:20;4.15;;;1.73;;
49824;SDS011;35714;55.708;37.478;2023-02-28T11:34:36;5.82;;;2.00;;
49824;SDS011;35714;55.708;37.478;2023-02-28T11:37:03;5.20;;;1.73;;
49824;SDS011;35714;55.708;37.478;2023-02-28T11:39:34;5.78;;;2.55;;
49824;SDS011;35714;55.708;37.478;2023-02-28T11:44:47;5.85;;;2.20;;
49824;SDS011;35714;55.708;37.478;2023-02-28T11:55:24;6.93;;;1.58;;
49824;SDS011;35714;55.708;37.478;2023-02-28T12:09:38;7.28;;;2.53;;
49824;SDS011;35714;55.708;37.478;2023-02-28T12:20:36;6.13;;;2.70;;
49824;SDS011;35714;55.708;37.478;2023-02-28T12:26:37;5.82;;;2.47;;
49824;SDS011;35714;55.708;37.478;2023-02-28T12:34:19;6.35;;;3.15;;
49824;SDS011;35714;55.708;37.478;2023-02-28T12:36:48;5.72;;;2.53;;
49824;SDS011;35714;55.708;37.478;2023-02-28T12:42:11;6.00;;;2.75;;
49824;SDS011;35714;55.708;37.478;2023-02-28T12:44:52;5.75;;;2.53;;
49824;SDS011;35714;55.708;37.478;2023-02-28T12:47:30;4.57;;;2.47;;
49824;SDS011;35714;55.708;37.478;2023-02-28T12:55:56;4.78;;;2.05;;
49824;SDS011;35714;55.708;37.478;2023-02-28T13:01:56;5.00;;;2.28;;
49824;SDS011;35714;55.708;37.478;2023-02-28T13:11:14;2.30;;;1.05;;
49824;SDS011;35714;55.708;37.478;2023-02-28T13:14:44;4.43;;;1.80;;
49824;SDS011;35714;55.708;37.478;2023-02-28T13:17:44;4.97;;;2.42;;
49824;SDS011;35714;55.708;37.478;2023-02-28T13:20:35;5.32;;;2.13;;
49824;SDS011;35714;55.708;37.478;2023-02-28T13:23:02;3.17;;;1.65;;
49824;SDS011;35714;55.708;37.478;2023-02-28T13:28:10;4.22;;;1.48;;
49824;SDS011;35714;55.708;37.478;2023-02-28T13:33:30;5.00;;;1.75;;
49824;SDS011;35714;55.708;37.478;2023-02-28T13:44:07;3.88;;;2.10;;
49824;SDS011;35714;55.708;37.478;2023-02-28T13:49:27;3.67;;;1.48;;
49824;SDS011;35714;55.708;37.478;2023-02-28T13:52:16;5.53;;;2.55;;
49824;SDS011;35714;55.708;37.478;2023-02-28T13:57:47;7.68;;;2.97;;
49824;SDS011;35714;55.708;37.478;2023-02-28T14:08:59;5.23;;;2.73;;
49824;SDS011;35714;55.708;37.478;2023-02-28T14:11:30;5.93;;;2.83;;
49824;SDS011;35714;55.708;37.478;2023-02-28T14:14:02;6.28;;;2.80;;
49824;SDS011;35714;55.708;37.478;2023-02-28T14:16:40;4.40;;;2.33;;
49824;SDS011;35714;55.708;37.478;2023-02-28T14:19:25;5.47;;;2.20;;
49824;SDS011;35714;55.708;37.478;2023-02-28T14:35:20;4.03;;;1.73;;
49824;SDS011;35714;55.708;37.478;2023-02-28T14:38:01;4.90;;;2.35;;
49824;SDS011;35714;55.708;37.478;2023-02-28T14:40:33;6.88;;;2.47;;
49824;SDS011;35714;55.708;37.478;2023-02-28T14:43:01;4.93;;;2.22;;
49824;SDS011;35714;55.708;37.478;2023-02-28T14:45:30;4.40;;;1.80;;
49824;SDS011;35714;55.708;37.478;2023-02-28T14:47:58;4.15;;;1.98;;
49824;SDS011;35714;55.708;37.478;2023-02-28T14:50:31;6.32;;;2.17;;
49824;SDS011;35714;55.708;37.478;2023-02-28T14:55:28;4.03;;;1.80;;
49824;SDS011;35714;55.708;37.478;2023-02-28T14:57:57;4.65;;;2.00;;
49824;SDS011;35714;55.708;37.478;2023-02-28T15:02:52;5.55;;;2.95;;
49824;SDS011;35714;55.708;37.478;2023-02-28T15:07:45;4.63;;;2.22;;
49824;SDS011;35714;55.708;37.478;2023-02-28T15:10:32;4.72;;;2.10;;
49824;SDS011;35714;55.708;37.478;2023-02-28T15:12:59;4.18;;;2.05;;
49824;SDS011;35714;55.708;37.478;2023-02-28T15:15:35;5.10;;;2.28;;
49824;SDS011;35714;55.708;37.478;2023-02-28T15:18:08;2.83;;;1.00;;
49824;SDS011;35714;55.708;37.478;2023-02-28T15:20:41;4.45;;;2.00;;
49824;SDS011;35714;55.708;37.478;2023-02-28T15:23:09;4.53;;;2.20;;
49824;SDS011;35714;55.708;37.478;2023-02-28T15:25:36;5.10;;;1.95;;
49824;SDS011;35714;55.708;37.478;2023-02-28T15:28:01;5.75;;;2.17;;
49824;SDS011;35714;55.708;37.478;2023-02-28T15:30:29;4.88;;;2.13;;
49824;SDS011;35714;55.708;37.478;2023-02-28T15:33:03;4.45;;;1.30;;
49824;SDS011;35714;55.708;37.478;2023-02-28T15:35:34;6.72;;;2.55;;
49824;SDS011;35714;55.708;37.478;2023-02-28T15:38:04;5.35;;;1.98;;
49824;SDS011;35714;55.708;37.478;2023-02-28T15:40:40;3.63;;;1.33;;
49824;SDS011;35714;55.708;37.478;2023-02-28T15:43:13;4.55;;;1.80;;
49824;SDS011;35714;55.708;37.478;2023-02-28T15:45:41;3.13;;;1.50;;
49824;SDS011;35714;55.708;37.478;2023-02-28T15:48:13;4.85;;;2.30;;
49824;SDS011;35714;55.708;37.478;2023-02-28T15:50:52;4.32;;;1.98;;
49824;SDS011;35714;55.708;37.478;2023-02-28T15:53:22;4.38;;;2.17;;
49824;SDS011;35714;55.708;37.478;2023-02-28T15:55:55;3.95;;;1.52;;
49824;SDS011;35714;55.708;37.478;2023-02-28T15:58:26;3.92;;;1.42;;
49824;SDS011;35714;55.708;37.478;2023-02-28T16:01:06;5.10;;;2.25;;
49824;SDS011;35714;55.708;37.478;2023-02-28T16:03:47;4.00;;;1.67;;
49824;SDS011;35714;55.708;37.478;2023-02-28T16:09:00;4.57;;;1.58;;
49824;SDS011;35714;55.708;37.478;2023-02-28T16:11:26;4.50;;;1.67;;
49824;SDS011;35714;55.708;37.478;2023-02-28T16:13:52;4.00;;;1.85;;
49824;SDS011;35714;55.708;37.478;2023-02-28T16:16:23;3.67;;;1.38;;
49824;SDS011;35714;55.708;37.478;2023-02-28T16:18:51;3.95;;;1.67;;
49824;SDS011;35714;55.708;37.478;2023-02-28T16:21:17;3.25;;;1.60;;
49824;SDS011;35714;55.708;37.478;2023-02-28T16:23:43;2.50;;;1.13;;
49824;SDS011;35714;55.708;37.478;2023-02-28T16:26:09;3.78;;;1.55;;
49824;SDS011;35714;55.708;37.478;2023-02-28T16:28:44;4.68;;;1.83;;
49824;SDS011;35714;55.708;37.478;2023-02-28T16:31:09;3.78;;;1.38;;
49824;SDS011;35714;55.708;37.478;2023-02-28T16:33:41;3.65;;;1.50;;
49824;SDS011;35714;55.708;37.478;2023-02-28T16:36:14;4.05;;;1.73;;
49824;SDS011;35714;55.708;37.478;2023-02-28T16:38:44;3.35;;;1.38;;
49824;SDS011;35714;55.708;37.478;2023-02-28T16:41:20;3.60;;;1.33;;
49824;SDS011;35714;55.708;37.478;2023-02-28T16:43:50;5.30;;;1.50;;
49824;SDS011;35714;55.708;37.478;2023-02-28T16:46:19;3.72;;;1.70;;
49824;SDS011;35714;55.708;37.478;2023-02-28T16:48:45;3.70;;;1.42;;
49824;SDS011;35714;55.708;37.478;2023-02-28T16:51:12;4.03;;;1.60;;
49824;SDS011;35714;55.708;37.478;2023-02-28T16:53:40;5.07;;;1.58;;
49824;SDS011;35714;55.708;37.478;2023-02-28T16:56:06;3.28;;;1.40;;
49824;SDS011;35714;55.708;37.478;2023-02-28T16:58:32;3.33;;;1.30;;
49824;SDS011;35714;55.708;37.478;2023-02-28T17:01:01;4.22;;;1.27;;
49824;SDS011;35714;55.708;37.478;2023-02-28T17:03:27;2.88;;;1.38;;
49824;SDS011;35714;55.708;37.478;2023-02-28T17:05:54;3.78;;;1.45;;
49824;SDS011;35714;55.708;37.478;2023-02-28T17:08:20;4.28;;;1.52;;
49824;SDS011;35714;55.708;37.478;2023-02-28T17:10:46;2.28;;;1.13;;
49824;SDS011;35714;55.708;37.478;2023-02-28T17:13:12;3.30;;;1.13;;
49824;SDS011;35714;55.708;37.478;2023-02-28T17:15:37;4.13;;;1.50;;
49824;SDS011;35714;55.708;37.478;2023-02-28T17:18:04;2.35;;;0.90;;
49824;SDS011;35714;55.708;37.478;2023-02-28T17:20:30;1.98;;;0.55;;
49824;SDS011;35714;55.708;37.478;2023-02-28T17:22:57;3.00;;;1.20;;
49824;SDS011;35714;55.708;37.478;2023-02-28T17:25:22;2.33;;;0.80;;
49824;SDS011;35714;55.708;37.478;2023-02-28T17:27:49;2.80;;;0.80;;
49824;SDS011;35714;55.708;37.478;2023-02-28T17:30:17;3.03;;;1.08;;
49824;SDS011;35714;55.708;37.478;2023-02-28T17:32:45;3.88;;;0.95;;